createdAt,value
2022-12-16T00:00:36.317Z,10.32
2022-12-16T00:01:20.365Z,9.47
2022-12-16T00:02:02.090Z,10.50
2022-12-16T00:02:43.838Z,10.60
2022-12-16T00:03:25.784Z,10.25
2022-12-16T00:04:07.458Z,9.87
2022-12-16T00:04:50.195Z,10.53
2022-12-16T00:05:32.059Z,10.35
2022-12-16T00:06:13.803Z,10.43
2022-12-16T00:06:55.426Z,9.63
2022-12-16T00:07:36.962Z,10.10
2022-12-16T00:08:18.561Z,9.87
2022-12-16T00:09:01.141Z,8.83
2022-12-16T00:09:42.715Z,10.87
2022-12-16T00:10:24.320Z,10.30
2022-12-16T00:11:07.585Z,9.90
2022-12-16T00:11:49.982Z,10.53
2022-12-16T00:12:31.538Z,10.52
2022-12-16T00:13:13.091Z,10.57
2022-12-16T00:13:55.080Z,9.00
2022-12-16T00:14:36.834Z,8.98
2022-12-16T00:15:18.532Z,9.20
2022-12-16T00:16:05.266Z,9.80
2022-12-16T00:16:47.061Z,10.37
2022-12-16T00:17:28.664Z,9.15
2022-12-16T00:18:10.321Z,9.90
2022-12-16T00:18:52.172Z,10.53
2022-12-16T00:19:33.806Z,10.90
2022-12-16T00:20:15.453Z,9.30
2022-12-16T00:20:57.124Z,9.33
2022-12-16T00:21:38.705Z,9.57
2022-12-16T00:22:20.285Z,9.73
2022-12-16T00:23:01.897Z,10.50
2022-12-16T00:23:43.588Z,9.77
2022-12-16T00:24:25.210Z,10.10
2022-12-16T00:25:07.387Z,10.43
2022-12-16T00:25:49.144Z,10.73
2022-12-16T00:26:31.198Z,10.47
2022-12-16T00:27:13.106Z,13.55
2022-12-16T00:27:58.768Z,12.43
2022-12-16T00:28:43.664Z,15.40
2022-12-16T00:29:25.242Z,14.07
2022-12-16T00:30:07.561Z,13.40
2022-12-16T00:30:51.137Z,15.63
2022-12-16T00:31:33.667Z,14.50
2022-12-16T00:32:15.368Z,15.68
2022-12-16T00:32:56.924Z,15.13
2022-12-16T00:33:38.791Z,14.00
2022-12-16T00:34:20.421Z,16.13
2022-12-16T00:35:01.968Z,16.30
2022-12-16T00:35:46.000Z,15.97
2022-12-16T00:36:27.846Z,16.47
2022-12-16T00:37:11.787Z,15.50
2022-12-16T00:37:53.418Z,14.73
2022-12-16T00:38:35.223Z,15.63
2022-12-16T00:39:16.942Z,14.83
2022-12-16T00:39:58.521Z,13.70
2022-12-16T00:40:40.291Z,15.23
2022-12-16T00:41:21.965Z,13.95
2022-12-16T00:42:03.680Z,14.33
2022-12-16T00:42:45.238Z,15.10
2022-12-16T00:43:26.886Z,13.30
2022-12-16T00:44:08.684Z,14.13
2022-12-16T00:44:50.291Z,14.20
2022-12-16T00:45:31.974Z,14.80
2022-12-16T00:46:13.605Z,13.33
2022-12-16T00:46:55.231Z,13.27
2022-12-16T00:47:41.021Z,13.27
2022-12-16T00:48:25.563Z,13.05
2022-12-16T00:49:07.202Z,12.63
2022-12-16T00:49:48.804Z,12.47
2022-12-16T00:50:30.645Z,14.50
2022-12-16T00:51:12.282Z,15.40
2022-12-16T00:51:53.925Z,12.57
2022-12-16T00:52:37.403Z,15.60
2022-12-16T00:53:20.651Z,18.77
2022-12-16T00:54:02.220Z,15.77
2022-12-16T00:54:43.810Z,16.23
2022-12-16T00:55:25.567Z,15.15
2022-12-16T00:56:09.746Z,16.60
2022-12-16T00:56:51.396Z,16.73
2022-12-16T00:57:34.272Z,15.85
2022-12-16T00:58:15.975Z,16.73
2022-12-16T00:58:57.550Z,16.67
2022-12-16T00:59:39.174Z,14.95
2022-12-16T01:00:22.380Z,15.13
2022-12-16T01:01:05.242Z,14.63
2022-12-16T01:01:47.151Z,14.50
2022-12-16T01:02:28.939Z,14.80
2022-12-16T01:03:12.443Z,14.95
2022-12-16T01:03:57.930Z,13.93
2022-12-16T01:04:39.706Z,12.73
2022-12-16T01:05:26.741Z,13.10
2022-12-16T01:06:14.733Z,13.50
2022-12-16T01:06:56.306Z,13.73
2022-12-16T01:07:38.458Z,15.68
2022-12-16T01:08:20.288Z,15.50
2022-12-16T01:09:01.864Z,14.43
2022-12-16T01:09:44.069Z,13.70
2022-12-16T01:10:26.128Z,14.25
2022-12-16T01:11:10.304Z,14.33
2022-12-16T01:11:51.932Z,12.27
2022-12-16T01:12:35.378Z,14.40
2022-12-16T01:13:17.003Z,13.03
2022-12-16T01:13:59.512Z,13.63
2022-12-16T01:14:41.067Z,13.93
2022-12-16T01:15:22.645Z,14.77
2022-12-16T01:16:04.592Z,12.43
2022-12-16T01:16:46.314Z,13.93
2022-12-16T01:17:28.322Z,14.03
2022-12-16T01:18:10.869Z,14.53
2022-12-16T01:18:53.328Z,14.20
2022-12-16T01:19:36.998Z,13.97
2022-12-16T01:20:18.643Z,13.27
2022-12-16T01:21:05.170Z,14.33
2022-12-16T01:21:46.785Z,13.88
2022-12-16T01:22:30.830Z,13.47
2022-12-16T01:23:12.442Z,13.68
2022-12-16T01:23:55.111Z,11.80
2022-12-16T01:24:36.773Z,12.03
2022-12-16T01:25:18.461Z,15.63
2022-12-16T01:26:01.244Z,12.50
2022-12-16T01:26:42.825Z,17.17
2022-12-16T01:27:24.472Z,12.77
2022-12-16T01:28:06.069Z,12.57
2022-12-16T01:28:48.654Z,11.70
2022-12-16T01:29:30.263Z,12.95
2022-12-16T01:30:12.326Z,11.85
2022-12-16T01:31:01.747Z,11.73
2022-12-16T01:31:43.541Z,13.27
2022-12-16T01:32:25.680Z,12.10
2022-12-16T01:33:07.280Z,11.85
2022-12-16T01:33:50.666Z,12.73
2022-12-16T01:34:32.960Z,11.77
2022-12-16T01:35:44.241Z,13.77
2022-12-16T01:36:17.016Z,13.40
2022-12-16T01:36:58.736Z,12.52
2022-12-16T01:37:40.489Z,13.15
2022-12-16T01:38:22.199Z,13.45
2022-12-16T01:39:03.793Z,13.30
2022-12-16T01:39:45.396Z,13.50
2022-12-16T01:40:27.044Z,14.43
2022-12-16T01:41:09.185Z,13.48
2022-12-16T01:41:50.860Z,14.70
2022-12-16T01:42:33.541Z,14.43
2022-12-16T01:43:25.363Z,13.93
2022-12-16T01:44:25.412Z,12.60
2022-12-16T01:45:42.769Z,11.53
2022-12-16T01:46:25.285Z,13.32
2022-12-16T01:47:07.009Z,12.77
2022-12-16T01:47:48.635Z,13.00
2022-12-16T01:49:01.425Z,14.83
2022-12-16T01:49:46.379Z,13.37
2022-12-16T01:50:30.068Z,13.33
2022-12-16T01:51:14.976Z,13.52
2022-12-16T01:52:02.042Z,11.60
2022-12-16T01:52:49.423Z,13.03
2022-12-16T01:53:32.148Z,14.20
2022-12-16T01:54:25.636Z,11.83
2022-12-16T01:55:12.285Z,13.37
2022-12-16T01:55:57.177Z,13.13
2022-12-16T01:57:02.993Z,13.67
2022-12-16T01:57:50.273Z,15.83
2022-12-16T01:58:38.757Z,12.37
2022-12-16T01:59:22.963Z,13.80
2022-12-16T02:00:08.481Z,14.33
2022-12-16T02:00:54.753Z,13.27
2022-12-16T02:01:36.637Z,13.10
2022-12-16T02:02:18.648Z,15.35
2022-12-16T02:03:00.705Z,13.85
2022-12-16T02:03:42.950Z,12.23
2022-12-16T02:04:24.592Z,11.43
2022-12-16T02:05:21.532Z,10.75
2022-12-16T02:06:05.595Z,12.03
2022-12-16T02:06:47.394Z,11.23
2022-12-16T02:07:29.051Z,11.23
2022-12-16T02:08:14.485Z,10.90
2022-12-16T02:08:59.551Z,12.57
2022-12-16T02:09:41.160Z,11.30
2022-12-16T02:10:41.669Z,10.80
2022-12-16T02:11:57.416Z,12.63
2022-12-16T02:12:56.773Z,11.60
2022-12-16T02:13:59.951Z,10.83
2022-12-16T02:14:52.692Z,11.53
2022-12-16T02:15:39.340Z,13.03
2022-12-16T02:16:45.655Z,11.00
2022-12-16T02:17:53.364Z,11.67
2022-12-16T02:19:01.391Z,14.00
2022-12-16T02:20:07.897Z,12.97
2022-12-16T02:21:04.522Z,12.77
2022-12-16T02:22:26.040Z,13.17
2022-12-16T02:23:39.687Z,15.60
2022-12-16T02:24:52.476Z,15.13
2022-12-16T02:25:57.918Z,14.60
2022-12-16T02:26:57.860Z,17.30
2022-12-16T02:28:02.531Z,17.13
2022-12-16T02:29:11.962Z,14.43
2022-12-16T02:30:20.584Z,16.20
2022-12-16T02:31:22.211Z,17.17
2022-12-16T02:32:28.646Z,17.00
2022-12-16T02:33:34.709Z,15.30
2022-12-16T02:34:31.032Z,15.33
2022-12-16T02:35:24.286Z,15.37
2022-12-16T02:36:21.871Z,16.10
2022-12-16T02:37:37.685Z,15.47
2022-12-16T02:38:54.692Z,17.43
2022-12-16T02:39:41.988Z,18.53
2022-12-16T02:40:45.790Z,18.43
2022-12-16T02:41:41.494Z,16.90
2022-12-16T02:42:40.293Z,16.43
2022-12-16T02:43:31.200Z,17.03
2022-12-16T02:44:15.259Z,14.97
2022-12-16T02:45:12.356Z,16.87
2022-12-16T02:45:54.012Z,15.63
2022-12-16T02:46:41.562Z,15.43
2022-12-16T02:47:24.405Z,15.33
2022-12-16T02:48:06.026Z,15.63
2022-12-16T02:48:47.659Z,14.77
2022-12-16T02:49:29.180Z,16.27
2022-12-16T02:50:28.053Z,15.03
2022-12-16T02:51:09.804Z,16.83
2022-12-16T02:51:51.815Z,17.23
2022-12-16T02:52:35.004Z,17.17
2022-12-16T02:53:18.348Z,16.33
2022-12-16T02:54:00.084Z,16.10
2022-12-16T02:54:43.074Z,14.77
2022-12-16T02:55:33.786Z,16.57
2022-12-16T02:56:30.334Z,13.83
2022-12-16T02:57:11.907Z,16.40
2022-12-16T02:58:10.238Z,16.60
2022-12-16T02:59:08.189Z,15.33
2022-12-16T03:00:02.436Z,17.23
2022-12-16T03:01:01.386Z,16.13
2022-12-16T03:02:05.616Z,17.53
2022-12-16T03:02:55.445Z,18.07
2022-12-16T03:03:45.824Z,15.93
2022-12-16T03:04:31.940Z,16.63
2022-12-16T03:05:28.521Z,16.50
2022-12-16T03:06:12.340Z,16.23
2022-12-16T03:06:56.551Z,15.50
2022-12-16T03:07:41.408Z,16.60
2022-12-16T03:08:30.032Z,17.47
2022-12-16T03:09:17.140Z,17.17
2022-12-16T03:09:59.823Z,18.03
2022-12-16T03:10:52.729Z,17.47
2022-12-16T03:11:35.672Z,16.50
2022-12-16T03:12:20.585Z,18.43
2022-12-16T03:13:04.560Z,17.07
2022-12-16T03:13:51.841Z,16.63
2022-12-16T03:14:37.987Z,17.57
2022-12-16T03:15:23.177Z,17.07
2022-12-16T03:16:07.916Z,17.23
2022-12-16T03:16:50.630Z,15.80
2022-12-16T03:17:32.523Z,15.80
2022-12-16T03:18:15.676Z,16.07
2022-12-16T03:19:06.708Z,17.38
2022-12-16T03:19:57.370Z,16.33
2022-12-16T03:20:45.635Z,18.00
2022-12-16T03:21:31.974Z,15.47
2022-12-16T03:22:36.456Z,16.70
2022-12-16T03:23:25.451Z,16.77
2022-12-16T03:24:10.675Z,17.40
2022-12-16T03:24:52.439Z,17.13
2022-12-16T03:25:38.690Z,16.38
2022-12-16T03:26:30.419Z,15.33
2022-12-16T03:27:26.954Z,16.77
2022-12-16T03:28:15.468Z,16.35
2022-12-16T03:29:16.705Z,16.07
2022-12-16T03:30:10.009Z,15.73
2022-12-16T03:31:04.859Z,16.97
2022-12-16T03:31:49.834Z,17.67
2022-12-16T03:32:37.771Z,19.10
2022-12-16T03:33:27.042Z,17.03
2022-12-16T03:34:21.331Z,16.70
2022-12-16T03:35:28.583Z,17.90
2022-12-16T03:36:18.281Z,16.83
2022-12-16T03:37:07.089Z,17.80
2022-12-16T03:37:55.356Z,16.73
2022-12-16T03:38:38.441Z,16.73
2022-12-16T03:39:23.091Z,16.53
2022-12-16T03:40:08.460Z,17.43
2022-12-16T03:40:51.461Z,16.37
2022-12-16T03:41:36.959Z,19.00
2022-12-16T03:42:18.744Z,17.67
2022-12-16T03:43:02.284Z,15.77
2022-12-16T03:43:44.354Z,18.00
2022-12-16T03:44:26.136Z,16.27
2022-12-16T03:45:13.156Z,16.13
2022-12-16T03:46:00.518Z,16.03
2022-12-16T03:46:42.280Z,16.63
2022-12-16T03:47:27.542Z,16.77
2022-12-16T03:48:12.147Z,16.83
2022-12-16T03:48:54.046Z,16.33
2022-12-16T03:49:35.702Z,17.30
2022-12-16T03:50:22.145Z,17.90
2022-12-16T03:51:03.888Z,16.63
2022-12-16T03:51:45.544Z,17.80
2022-12-16T03:52:27.160Z,16.50
2022-12-16T03:53:08.852Z,15.40
2022-12-16T03:53:50.651Z,17.80
2022-12-16T03:54:32.308Z,16.57
2022-12-16T03:55:14.112Z,16.57
2022-12-16T03:55:56.104Z,15.47
2022-12-16T03:56:37.775Z,14.60
2022-12-16T03:57:19.415Z,15.70
2022-12-16T03:58:01.047Z,16.57
2022-12-16T03:58:42.806Z,15.57
2022-12-16T03:59:24.628Z,14.80
2022-12-16T04:00:07.009Z,15.40
2022-12-16T04:00:53.512Z,16.63
2022-12-16T04:01:35.364Z,16.13
2022-12-16T04:02:17.246Z,16.30
2022-12-16T04:02:59.478Z,15.10
2022-12-16T04:03:41.403Z,16.37
2022-12-16T04:04:23.907Z,15.30
2022-12-16T04:05:06.025Z,17.37
2022-12-16T04:05:47.690Z,17.33
2022-12-16T04:06:29.457Z,16.40
2022-12-16T04:07:20.229Z,16.87
2022-12-16T04:08:02.448Z,17.27
2022-12-16T04:08:48.115Z,17.73
2022-12-16T04:09:29.757Z,14.90
2022-12-16T04:10:12.249Z,15.70
2022-12-16T04:11:12.706Z,17.37
2022-12-16T04:12:12.870Z,15.63
2022-12-16T04:13:13.199Z,16.60
2022-12-16T04:14:13.641Z,18.40
2022-12-16T04:15:13.963Z,15.93
2022-12-16T04:16:14.791Z,17.50
2022-12-16T04:17:15.878Z,16.33
2022-12-16T04:18:15.906Z,18.10
2022-12-16T04:19:16.144Z,16.60
2022-12-16T04:20:16.161Z,16.77
2022-12-16T04:21:16.842Z,17.10
2022-12-16T04:22:17.037Z,15.27
2022-12-16T04:23:17.724Z,15.90
2022-12-16T04:24:18.510Z,14.77
2022-12-16T04:25:10.436Z,17.80
2022-12-16T04:25:52.075Z,19.33
2022-12-16T04:26:56.653Z,17.27
2022-12-16T04:27:38.272Z,15.77
2022-12-16T04:28:19.839Z,17.60
2022-12-16T04:29:01.449Z,15.80
2022-12-16T04:30:02.672Z,17.17
2022-12-16T04:30:44.415Z,17.80
2022-12-16T04:31:26.170Z,18.53
2022-12-16T04:32:07.888Z,15.93
2022-12-16T04:33:23.433Z,17.90
2022-12-16T04:34:23.783Z,16.97
2022-12-16T04:35:23.873Z,14.83
2022-12-16T04:36:24.475Z,16.90
2022-12-16T04:37:24.481Z,15.50
2022-12-16T04:38:24.672Z,14.97
2022-12-16T04:39:24.871Z,16.37
2022-12-16T04:40:25.460Z,16.97
2022-12-16T04:41:25.940Z,16.87
2022-12-16T04:42:26.577Z,17.53
2022-12-16T04:43:26.827Z,14.47
2022-12-16T04:44:27.644Z,15.53
2022-12-16T04:45:29.112Z,17.40
2022-12-16T04:46:29.203Z,16.27
2022-12-16T04:47:29.265Z,17.87
2022-12-16T04:48:29.521Z,16.43
2022-12-16T04:49:30.065Z,16.63
2022-12-16T04:50:30.627Z,18.57
2022-12-16T04:51:30.703Z,16.87
2022-12-16T04:52:31.308Z,18.90
2022-12-16T04:53:31.687Z,15.93
2022-12-16T04:54:31.963Z,17.60
2022-12-16T04:55:32.333Z,17.53
2022-12-16T04:56:32.347Z,14.80
2022-12-16T04:57:32.288Z,17.60
2022-12-16T04:58:32.427Z,19.33
2022-12-16T04:59:33.039Z,17.47
2022-12-16T05:00:33.127Z,14.90
2022-12-16T05:01:33.507Z,17.63
2022-12-16T05:02:34.062Z,17.07
2022-12-16T05:03:34.818Z,20.23
2022-12-16T05:04:35.003Z,16.77
2022-12-16T05:05:35.114Z,16.30
2022-12-16T05:06:36.184Z,17.57
2022-12-16T05:07:38.651Z,18.20
2022-12-16T05:08:39.200Z,17.37
2022-12-16T05:09:39.474Z,18.83
2022-12-16T05:10:39.884Z,18.43
2022-12-16T05:11:40.191Z,19.93
2022-12-16T05:12:40.352Z,18.80
2022-12-16T05:13:40.450Z,21.17
2022-12-16T05:14:40.682Z,20.33
2022-12-16T05:15:40.996Z,19.03
2022-12-16T05:16:41.434Z,18.53
2022-12-16T05:17:41.772Z,18.77
2022-12-16T05:18:42.106Z,19.80
2022-12-16T05:19:42.350Z,19.20
2022-12-16T05:20:42.617Z,19.10
2022-12-16T05:22:02.734Z,22.53
2022-12-16T05:23:03.279Z,19.87
2022-12-16T05:24:03.818Z,21.17
2022-12-16T05:25:04.130Z,21.57
2022-12-16T05:26:04.346Z,20.33
2022-12-16T05:27:04.535Z,21.63
2022-12-16T05:28:10.437Z,18.63
2022-12-16T05:29:10.597Z,19.53
2022-12-16T05:30:10.751Z,18.60
2022-12-16T05:31:11.089Z,20.33
2022-12-16T05:32:11.211Z,17.80
2022-12-16T05:33:11.420Z,18.50
2022-12-16T05:34:11.803Z,17.97
2022-12-16T05:35:12.017Z,16.30
2022-12-16T05:36:12.448Z,17.30
2022-12-16T05:37:12.830Z,18.87
2022-12-16T05:38:23.785Z,17.47
2022-12-16T05:39:24.007Z,19.37
2022-12-16T05:40:25.018Z,18.97
2022-12-16T05:41:25.479Z,16.73
2022-12-16T05:42:25.606Z,17.37
2022-12-16T05:43:25.741Z,18.17
2022-12-16T05:44:25.830Z,17.63
2022-12-16T05:45:26.207Z,17.03
2022-12-16T05:46:26.444Z,17.23
2022-12-16T05:47:27.541Z,16.67
2022-12-16T05:48:27.719Z,16.67
2022-12-16T05:49:27.861Z,17.07
2022-12-16T05:50:28.526Z,17.67
2022-12-16T05:51:41.253Z,16.17
2022-12-16T05:52:41.374Z,18.03
2022-12-16T05:53:41.646Z,18.50
2022-12-16T05:54:41.818Z,17.73
2022-12-16T05:55:42.702Z,16.57
2022-12-16T05:56:42.963Z,18.90
2022-12-16T05:57:43.170Z,16.47
2022-12-16T05:58:44.274Z,18.70
2022-12-16T05:59:44.263Z,18.80
2022-12-16T06:00:44.511Z,17.10
2022-12-16T06:02:04.595Z,21.90
2022-12-16T06:03:05.209Z,17.07
2022-12-16T06:04:05.504Z,18.70
2022-12-16T06:05:05.831Z,17.00
2022-12-16T06:06:06.111Z,17.47
2022-12-16T06:07:06.192Z,19.03
2022-12-16T06:08:11.054Z,19.23
2022-12-16T06:09:11.220Z,16.93
2022-12-16T06:10:11.362Z,18.67
2022-12-16T06:11:11.483Z,17.00
2022-12-16T06:12:11.758Z,17.27
2022-12-16T06:13:11.869Z,16.83
2022-12-16T06:14:12.040Z,17.00
2022-12-16T06:15:12.675Z,18.10
2022-12-16T06:16:12.881Z,19.20
2022-12-16T06:17:13.086Z,22.10
2022-12-16T06:18:13.853Z,19.43
2022-12-16T06:19:14.197Z,17.97
2022-12-16T06:20:14.435Z,18.57
2022-12-16T06:21:14.941Z,19.00
2022-12-16T06:22:15.281Z,18.43
2022-12-16T06:23:15.288Z,20.23
2022-12-16T06:24:15.487Z,18.23
2022-12-16T06:25:15.553Z,20.17
2022-12-16T06:26:15.781Z,18.10
2022-12-16T06:27:15.836Z,20.33
2022-12-16T06:28:16.263Z,20.17
2022-12-16T06:29:16.401Z,17.73
2022-12-16T06:30:16.478Z,16.83
2022-12-16T06:31:16.436Z,17.33
2022-12-16T06:32:16.653Z,18.67
2022-12-16T06:33:16.738Z,20.27
2022-12-16T06:34:17.248Z,19.30
2022-12-16T06:35:17.382Z,20.53
2022-12-16T06:36:17.354Z,18.50
2022-12-16T06:37:17.273Z,18.90
2022-12-16T06:38:17.386Z,19.67
2022-12-16T06:39:17.454Z,17.13
2022-12-16T06:40:17.477Z,17.93
2022-12-16T06:41:17.510Z,16.53
2022-12-16T06:42:17.761Z,17.27
2022-12-16T06:43:17.869Z,17.27
2022-12-16T06:44:28.630Z,16.63
2022-12-16T06:45:34.497Z,17.23
2022-12-16T06:46:35.143Z,16.67
2022-12-16T06:47:35.400Z,19.80
2022-12-16T06:48:43.137Z,18.37
2022-12-16T06:49:43.389Z,16.80
2022-12-16T06:50:45.065Z,19.87
2022-12-16T06:51:45.417Z,18.37
2022-12-16T06:52:45.673Z,16.97
2022-12-16T06:53:45.854Z,18.10
2022-12-16T06:54:46.045Z,17.80
2022-12-16T06:55:47.310Z,17.07
2022-12-16T06:56:47.535Z,14.47
2022-12-16T06:58:09.707Z,16.07
2022-12-16T06:59:10.004Z,19.10
2022-12-16T07:00:10.344Z,16.67
2022-12-16T07:01:10.692Z,16.77
2022-12-16T07:02:11.157Z,17.20
2022-12-16T07:03:12.091Z,15.80
2022-12-16T07:04:12.324Z,17.90
2022-12-16T07:05:12.602Z,17.60
2022-12-16T07:06:13.939Z,16.57
2022-12-16T07:07:14.033Z,16.43
2022-12-16T07:08:14.214Z,15.50
2022-12-16T07:09:14.914Z,19.23
2022-12-16T07:10:14.941Z,20.30
2022-12-16T07:11:17.080Z,17.87
2022-12-16T07:12:17.555Z,18.77
2022-12-16T07:13:20.979Z,16.70
2022-12-16T07:14:22.600Z,17.63
2022-12-16T07:15:23.280Z,19.03
2022-12-16T07:16:23.951Z,18.17
2022-12-16T07:17:24.413Z,18.20
2022-12-16T07:18:24.651Z,17.50
2022-12-16T07:19:24.747Z,16.77
2022-12-16T07:20:25.752Z,16.90
2022-12-16T07:21:30.279Z,15.80
2022-12-16T07:22:30.393Z,18.37
2022-12-16T07:23:30.914Z,17.20
2022-12-16T07:24:31.221Z,17.17
2022-12-16T07:25:31.706Z,19.50
2022-12-16T07:26:31.742Z,18.07
2022-12-16T07:27:32.122Z,15.77
2022-12-16T07:28:32.889Z,17.23
2022-12-16T07:29:32.953Z,16.57
2022-12-16T07:30:32.933Z,18.43
2022-12-16T07:31:33.163Z,17.97
2022-12-16T07:32:33.238Z,16.90
2022-12-16T07:33:33.666Z,17.90
2022-12-16T07:34:38.732Z,22.37
2022-12-16T07:35:41.599Z,21.43
2022-12-16T07:36:41.681Z,17.93
2022-12-16T07:37:41.829Z,21.03
2022-12-16T07:38:42.211Z,17.03
2022-12-16T07:39:42.434Z,20.20
2022-12-16T07:40:42.785Z,17.40
2022-12-16T07:41:42.935Z,18.57
2022-12-16T07:42:44.180Z,19.17
2022-12-16T07:43:44.375Z,19.63
2022-12-16T07:44:44.454Z,20.33
2022-12-16T07:45:45.507Z,15.93
2022-12-16T07:46:45.611Z,17.90
2022-12-16T07:47:45.803Z,17.07
2022-12-16T07:48:45.950Z,17.13
2022-12-16T07:49:46.160Z,19.43
2022-12-16T07:50:46.111Z,19.27
2022-12-16T07:51:46.163Z,18.03
2022-12-16T07:52:46.320Z,16.33
2022-12-16T07:53:47.177Z,21.53
2022-12-16T07:54:47.196Z,17.67
2022-12-16T07:55:47.400Z,16.10
2022-12-16T07:56:47.467Z,17.03
2022-12-16T07:57:47.532Z,18.43
2022-12-16T07:58:48.491Z,18.20
2022-12-16T07:59:48.785Z,20.20
2022-12-16T08:00:49.062Z,18.63
2022-12-16T08:01:49.459Z,18.53
2022-12-16T08:02:50.094Z,19.47
2022-12-16T08:03:51.148Z,18.63
2022-12-16T08:04:51.560Z,19.40
2022-12-16T08:05:51.540Z,17.93
2022-12-16T08:06:51.530Z,19.93
2022-12-16T08:07:52.038Z,18.30
2022-12-16T08:08:52.711Z,18.80
2022-12-16T08:09:52.872Z,20.57
2022-12-16T08:10:53.523Z,23.43
2022-12-16T08:11:55.601Z,19.53
2022-12-16T08:12:56.274Z,18.97
2022-12-16T08:13:56.188Z,19.27
2022-12-16T08:14:56.664Z,16.90
2022-12-16T08:15:56.686Z,18.27
2022-12-16T08:16:56.917Z,17.93
2022-12-16T08:17:57.575Z,20.03
2022-12-16T08:18:57.860Z,17.23
2022-12-16T08:19:58.377Z,19.33
2022-12-16T08:20:58.272Z,16.90
2022-12-16T08:21:58.782Z,20.20
2022-12-16T08:22:59.398Z,18.73
2022-12-16T08:24:00.114Z,18.97
2022-12-16T08:25:00.948Z,18.73
2022-12-16T08:26:01.300Z,20.37
2022-12-16T08:27:01.538Z,19.43
2022-12-16T08:28:02.852Z,20.70
2022-12-16T08:29:27.207Z,21.90
2022-12-16T08:30:23.731Z,18.33
2022-12-16T08:31:43.521Z,18.73
2022-12-16T08:32:43.790Z,19.83
2022-12-16T08:33:43.958Z,19.93
2022-12-16T08:34:44.209Z,21.67
2022-12-16T08:35:44.393Z,19.37
2022-12-16T08:36:44.743Z,17.27
2022-12-16T08:37:45.060Z,17.83
2022-12-16T08:38:45.441Z,18.07
2022-12-16T08:39:51.368Z,18.67
2022-12-16T08:41:04.984Z,17.23
2022-12-16T08:42:05.348Z,16.93
2022-12-16T08:43:10.798Z,16.07
2022-12-16T08:44:12.714Z,19.90
2022-12-16T08:45:13.081Z,17.63
2022-12-16T08:46:14.439Z,17.17
2022-12-16T08:47:14.973Z,18.43
2022-12-16T08:48:15.221Z,19.83
2022-12-16T08:50:20.588Z,16.40
2022-12-16T08:51:23.586Z,18.63
2022-12-16T08:52:23.727Z,17.47
2022-12-16T08:53:23.801Z,16.40
2022-12-16T08:54:23.964Z,19.20
2022-12-16T08:55:27.961Z,21.00
2022-12-16T08:56:29.888Z,19.77
2022-12-16T08:57:30.012Z,18.23
2022-12-16T08:58:30.130Z,19.50
2022-12-16T08:59:30.415Z,20.17
2022-12-16T09:00:50.782Z,23.37
2022-12-16T09:01:50.700Z,21.00
2022-12-16T09:02:51.695Z,19.53
2022-12-16T09:03:54.452Z,18.37
2022-12-16T09:04:54.785Z,20.10
2022-12-16T09:05:56.156Z,18.07
2022-12-16T09:06:56.292Z,16.47
2022-12-16T09:07:56.656Z,17.73
2022-12-16T09:08:56.940Z,16.40
2022-12-16T09:09:57.175Z,17.87
2022-12-16T09:10:57.398Z,15.87
2022-12-16T09:11:57.893Z,16.10
2022-12-16T09:12:58.198Z,16.10
2022-12-16T09:13:58.447Z,19.07
2022-12-16T09:14:58.448Z,17.70
2022-12-16T09:15:58.820Z,16.03
2022-12-16T09:16:59.220Z,20.80
2022-12-16T09:17:59.248Z,16.80
2022-12-16T09:18:59.255Z,19.00
2022-12-16T09:19:59.461Z,18.00
2022-12-16T09:21:00.119Z,17.60
2022-12-16T09:22:00.285Z,18.50
2022-12-16T09:23:00.490Z,17.77
2022-12-16T09:24:14.744Z,18.83
2022-12-16T09:25:15.339Z,17.40
2022-12-16T09:26:15.495Z,17.03
2022-12-16T09:27:15.695Z,17.03
2022-12-16T09:28:15.887Z,16.67
2022-12-16T09:29:16.092Z,17.27
2022-12-16T09:30:16.368Z,17.77
2022-12-16T09:31:16.368Z,18.20
2022-12-16T09:32:17.164Z,16.63
2022-12-16T09:33:19.816Z,17.57
2022-12-16T09:34:20.279Z,17.93
2022-12-16T09:35:20.655Z,15.30
2022-12-16T09:36:20.675Z,19.30
2022-12-16T09:37:20.943Z,18.37
2022-12-16T09:38:21.536Z,19.13
2022-12-16T09:39:22.049Z,18.77
2022-12-16T09:40:23.328Z,17.37
2022-12-16T09:41:46.677Z,23.27
2022-12-16T09:43:02.565Z,18.17
2022-12-16T09:44:55.113Z,16.40
2022-12-16T09:46:22.033Z,16.53
2022-12-16T09:47:41.680Z,20.10
2022-12-16T09:49:06.008Z,17.33
2022-12-16T09:50:11.531Z,18.70
2022-12-16T09:51:14.215Z,15.87
2022-12-16T09:52:18.529Z,17.80
2022-12-16T09:53:28.014Z,14.67
2022-12-16T09:54:33.473Z,16.37
2022-12-16T09:55:51.769Z,15.00
2022-12-16T09:56:55.320Z,16.17
2022-12-16T09:57:56.353Z,16.83
2022-12-16T09:59:06.279Z,16.17
2022-12-16T10:00:14.206Z,18.03
2022-12-16T10:01:15.010Z,21.53
2022-12-16T10:02:15.997Z,15.80
2022-12-16T10:03:28.520Z,16.63
2022-12-16T10:04:29.095Z,18.33
2022-12-16T10:05:37.015Z,20.67
2022-12-16T10:07:00.770Z,18.40
2022-12-16T10:08:07.475Z,18.07
2022-12-16T10:09:49.653Z,16.53
2022-12-16T10:10:59.726Z,15.93
2022-12-16T10:12:09.905Z,19.83
2022-12-16T10:13:35.446Z,18.97
2022-12-16T10:14:50.001Z,16.93
2022-12-16T10:16:07.987Z,15.63
2022-12-16T10:17:14.236Z,16.10
2022-12-16T10:18:14.946Z,16.63
2022-12-16T10:19:24.356Z,17.37
2022-12-16T10:20:46.890Z,16.03
2022-12-16T10:21:54.810Z,16.03
2022-12-16T10:23:11.642Z,19.30
2022-12-16T10:24:24.028Z,15.43
2022-12-16T10:25:39.448Z,19.03
2022-12-16T10:26:50.700Z,16.93
2022-12-16T10:27:58.558Z,17.57
2022-12-16T10:29:05.714Z,17.10
2022-12-16T10:30:05.967Z,15.50
2022-12-16T10:31:06.712Z,17.40
2022-12-16T10:32:07.264Z,16.83
2022-12-16T10:33:09.499Z,20.00
2022-12-16T10:34:11.306Z,16.70
2022-12-16T10:35:13.776Z,15.13
2022-12-16T10:36:15.020Z,16.20
2022-12-16T10:37:20.691Z,17.37
2022-12-16T10:38:25.678Z,17.50
2022-12-16T10:39:43.051Z,16.53
2022-12-16T10:40:48.533Z,15.00
2022-12-16T10:41:53.855Z,16.23
2022-12-16T10:43:08.297Z,16.73
2022-12-16T10:44:11.432Z,14.53
2022-12-16T10:45:20.311Z,14.50
2022-12-16T10:46:25.760Z,16.00
2022-12-16T10:47:26.199Z,15.10
2022-12-16T10:48:29.464Z,17.57
2022-12-16T10:49:33.198Z,17.17
2022-12-16T10:50:34.301Z,19.73
2022-12-16T10:51:37.962Z,15.57
2022-12-16T10:52:38.484Z,14.20
2022-12-16T10:53:46.190Z,15.53
2022-12-16T10:54:57.210Z,14.17
2022-12-16T10:56:35.062Z,13.63
2022-12-16T10:57:50.954Z,15.43
2022-12-16T10:59:10.880Z,14.47
2022-12-16T11:00:26.116Z,21.47
2022-12-16T11:01:44.160Z,14.27
2022-12-16T11:02:47.508Z,18.83
2022-12-16T11:03:51.040Z,16.97
2022-12-16T11:04:56.817Z,19.63
2022-12-16T11:05:56.945Z,18.63
2022-12-16T11:07:00.001Z,17.10
2022-12-16T11:08:03.302Z,19.20
2022-12-16T11:09:03.424Z,15.53
2022-12-16T11:10:03.712Z,14.90
2022-12-16T11:11:04.256Z,15.05
2022-12-16T11:12:04.353Z,16.77
2022-12-16T11:13:04.386Z,13.13
2022-12-16T11:14:04.358Z,14.93
2022-12-16T11:16:37.985Z,14.80
2022-12-16T11:17:42.144Z,16.80
2022-12-16T11:18:42.363Z,17.13
2022-12-16T11:19:48.054Z,15.13
2022-12-16T11:20:48.510Z,14.03
2022-12-16T11:21:48.628Z,14.13
2022-12-16T11:22:48.724Z,24.60
2022-12-16T11:23:49.436Z,14.90
2022-12-16T11:24:50.627Z,15.23
2022-12-16T11:25:50.879Z,16.33
2022-12-16T11:27:11.444Z,12.80
2022-12-16T11:28:29.833Z,15.60
2022-12-16T11:29:32.773Z,13.43
2022-12-16T11:30:39.804Z,14.83
2022-12-16T11:31:40.138Z,14.10
2022-12-16T11:32:44.928Z,14.53
2022-12-16T11:33:46.851Z,13.40
2022-12-16T11:34:57.910Z,15.40
2022-12-16T11:36:06.539Z,13.23
2022-12-16T11:37:11.027Z,14.43
2022-12-16T11:38:13.336Z,15.20
2022-12-16T11:39:14.043Z,19.17
2022-12-16T11:40:14.413Z,14.57
2022-12-16T11:41:15.536Z,15.43
2022-12-16T11:42:19.996Z,14.80
2022-12-16T11:43:24.117Z,16.63
2022-12-16T11:44:29.594Z,18.15
2022-12-16T11:45:39.756Z,13.90
2022-12-16T11:46:47.609Z,17.03
2022-12-16T11:48:01.468Z,16.60
2022-12-16T11:49:06.341Z,16.33
2022-12-16T11:50:07.107Z,17.13
2022-12-16T11:51:12.380Z,17.53
2022-12-16T11:52:36.734Z,18.20
2022-12-16T11:54:13.059Z,18.63
2022-12-16T11:55:35.704Z,16.33
2022-12-16T11:56:44.770Z,17.63
2022-12-16T11:57:57.666Z,18.67
2022-12-16T11:59:11.427Z,17.37
2022-12-16T12:00:17.912Z,15.63
2022-12-16T12:01:34.123Z,18.53
2022-12-16T12:02:49.681Z,18.67
2022-12-16T12:04:01.847Z,13.47
2022-12-16T12:05:02.473Z,18.30
2022-12-16T12:06:31.659Z,19.70